sensor_id;sensor_type;location;lat;lon;timestamp;pressure;altitude;pressure_sealevel;temperature;humidity
78741;BME280;68062;48.726;9.370;2023-07-30T00:00:33;98337.69;;;17.70;100.00
78741;BME280;68062;48.726;9.370;2023-07-30T00:03:00;98325.97;;;17.82;100.00
78741;BME280;68062;48.726;9.370;2023-07-30T00:05:28;98316.00;;;17.93;100.00
78741;BME280;68062;48.726;9.370;2023-07-30T00:07:54;98319.94;;;17.82;100.00
78741;BME280;68062;48.726;9.370;2023-07-30T00:10:21;98311.38;;;17.78;100.00
78741;BME280;68062;48.726;9.370;2023-07-30T00:12:47;98316.66;;;17.76;100.00
78741;BME280;68062;48.726;9.370;2023-07-30T00:15:14;98300.19;;;17.76;100.00
78741;BME280;68062;48.726;9.370;2023-07-30T00:17:41;98304.50;;;17.77;100.00
78741;BME280;68062;48.726;9.370;2023-07-30T00:20:08;98298.38;;;17.56;100.00
78741;BME280;68062;48.726;9.370;2023-07-30T00:22:36;98306.41;;;17.49;100.00
78741;BME280;68062;48.726;9.370;2023-07-30T00:25:04;98304.03;;;17.43;100.00
78741;BME280;68062;48.726;9.370;2023-07-30T00:27:30;98307.31;;;17.48;100.00
78741;BME280;68062;48.726;9.370;2023-07-30T00:29:57;98314.69;;;17.59;100.00
78741;BME280;68062;48.726;9.370;2023-07-30T00:32:23;98319.00;;;17.60;100.00
78741;BME280;68062;48.726;9.370;2023-07-30T00:34:50;98309.78;;;17.52;100.00
78741;BME280;68062;48.726;9.370;2023-07-30T00:37:16;98317.88;;;17.44;100.00
78741;BME280;68062;48.726;9.370;2023-07-30T00:39:44;98316.28;;;17.40;100.00
78741;BME280;68062;48.726;9.370;2023-07-30T00:42:11;98326.75;;;17.38;100.00
78741;BME280;68062;48.726;9.370;2023-07-30T00:44:37;98319.56;;;17.45;100.00
78741;BME280;68062;48.726;9.370;2023-07-30T00:47:04;98315.00;;;17.52;100.00
78741;BME280;68062;48.726;9.370;2023-07-30T00:49:30;98324.38;;;17.32;100.00
78741;BME280;68062;48.726;9.370;2023-07-30T00:51:57;98342.72;;;17.27;100.00
78741;BME280;68062;48.726;9.370;2023-07-30T00:54:24;98346.41;;;17.21;100.00
78741;BME280;68062;48.726;9.370;2023-07-30T00:56:53;98340.72;;;17.10;100.00
78741;BME280;68062;48.726;9.370;2023-07-30T00:59:20;98340.81;;;17.09;100.00
78741;BME280;68062;48.726;9.370;2023-07-30T01:01:47;98341.31;;;17.18;100.00
78741;BME280;68062;48.726;9.370;2023-07-30T01:04:14;98334.28;;;17.22;100.00
78741;BME280;68062;48.726;9.370;2023-07-30T01:06:41;98338.28;;;17.31;100.00
78741;BME280;68062;48.726;9.370;2023-07-30T01:09:07;98332.41;;;17.26;100.00
78741;BME280;68062;48.726;9.370;2023-07-30T01:11:35;98342.50;;;17.10;100.00
78741;BME280;68062;48.726;9.370;2023-07-30T01:14:05;98340.16;;;17.02;100.00
78741;BME280;68062;48.726;9.370;2023-07-30T01:16:31;98345.41;;;17.00;100.00
78741;BME280;68062;48.726;9.370;2023-07-30T01:18:58;98343.06;;;17.18;100.00
78741;BME280;68062;48.726;9.370;2023-07-30T01:21:31;98342.97;;;17.21;100.00
78741;BME280;68062;48.726;9.370;2023-07-30T01:23:57;98355.66;;;17.29;100.00
78741;BME280;68062;48.726;9.370;2023-07-30T01:26:27;98353.50;;;17.16;100.00
78741;BME280;68062;48.726;9.370;2023-07-30T01:28:58;98358.81;;;17.13;100.00
78741;BME280;68062;48.726;9.370;2023-07-30T01:31:27;98359.03;;;17.07;100.00
78741;BME280;68062;48.726;9.370;2023-07-30T01:33:57;98364.75;;;17.17;100.00
78741;BME280;68062;48.726;9.370;2023-07-30T01:36:26;98359.78;;;17.34;100.00
78741;BME280;68062;48.726;9.370;2023-07-30T01:38:56;98365.72;;;17.38;100.00
78741;BME280;68062;48.726;9.370;2023-07-30T01:41:23;98374.31;;;17.40;100.00
78741;BME280;68062;48.726;9.370;2023-07-30T01:43:50;98367.78;;;17.28;100.00
78741;BME280;68062;48.726;9.370;2023-07-30T01:46:17;98369.16;;;17.15;100.00
78741;BME280;68062;48.726;9.370;2023-07-30T01:48:43;98370.16;;;17.11;100.00
78741;BME280;68062;48.726;9.370;2023-07-30T01:51:10;98373.50;;;17.14;100.00
78741;BME280;68062;48.726;9.370;2023-07-30T01:53:36;98368.41;;;17.11;100.00
78741;BME280;68062;48.726;9.370;2023-07-30T01:56:04;98379.59;;;17.13;100.00
78741;BME280;68062;48.726;9.370;2023-07-30T01:58:31;98367.56;;;17.11;100.00
78741;BME280;68062;48.726;9.370;2023-07-30T02:00:57;98379.38;;;17.19;100.00
78741;BME280;68062;48.726;9.370;2023-07-30T02:03:24;98360.91;;;17.03;100.00
78741;BME280;68062;48.726;9.370;2023-07-30T02:05:51;98375.16;;;17.17;100.00
78741;BME280;68062;48.726;9.370;2023-07-30T02:08:18;98370.91;;;17.14;100.00
78741;BME280;68062;48.726;9.370;2023-07-30T02:10:54;98374.50;;;17.10;100.00
78741;BME280;68062;48.726;9.370;2023-07-30T02:13:22;98371.66;;;17.18;100.00
78741;BME280;68062;48.726;9.370;2023-07-30T02:15:49;98370.47;;;17.27;100.00
78741;BME280;68062;48.726;9.370;2023-07-30T02:18:15;98351.91;;;17.12;100.00
78741;BME280;68062;48.726;9.370;2023-07-30T02:20:42;98363.09;;;17.14;100.00
78741;BME280;68062;48.726;9.370;2023-07-30T02:23:09;98361.16;;;17.21;100.00
78741;BME280;68062;48.726;9.370;2023-07-30T02:25:35;98363.06;;;17.16;100.00
78741;BME280;68062;48.726;9.370;2023-07-30T02:28:03;98358.09;;;17.10;100.00
78741;BME280;68062;48.726;9.370;2023-07-30T02:30:32;98358.47;;;17.23;100.00
78741;BME280;68062;48.726;9.370;2023-07-30T02:32:59;98353.88;;;17.31;100.00
78741;BME280;68062;48.726;9.370;2023-07-30T02:35:26;98358.19;;;17.30;100.00
78741;BME280;68062;48.726;9.370;2023-07-30T02:37:52;98357.28;;;17.08;100.00
78741;BME280;68062;48.726;9.370;2023-07-30T02:40:19;98363.97;;;17.15;100.00
78741;BME280;68062;48.726;9.370;2023-07-30T02:42:45;98367.50;;;17.12;100.00
78741;BME280;68062;48.726;9.370;2023-07-30T02:45:12;98374.38;;;17.15;100.00
78741;BME280;68062;48.726;9.370;2023-07-30T02:47:40;98384.28;;;17.03;100.00
78741;BME280;68062;48.726;9.370;2023-07-30T02:50:07;98380.88;;;17.01;100.00
78741;BME280;68062;48.726;9.370;2023-07-30T02:52:34;98375.88;;;17.20;100.00
78741;BME280;68062;48.726;9.370;2023-07-30T02:55:01;98383.28;;;17.08;100.00
78741;BME280;68062;48.726;9.370;2023-07-30T02:57:28;98382.16;;;17.15;100.00
78741;BME280;68062;48.726;9.370;2023-07-30T02:59:54;98380.19;;;17.21;100.00
78741;BME280;68062;48.726;9.370;2023-07-30T03:02:21;98374.63;;;17.07;100.00
78741;BME280;68062;48.726;9.370;2023-07-30T03:04:49;98370.38;;;17.04;100.00
78741;BME280;68062;48.726;9.370;2023-07-30T03:07:15;98363.22;;;17.11;100.00
78741;BME280;68062;48.726;9.370;2023-07-30T03:09:43;98369.88;;;16.93;100.00
78741;BME280;68062;48.726;9.370;2023-07-30T03:12:10;98368.22;;;16.90;100.00
78741;BME280;68062;48.726;9.370;2023-07-30T03:14:36;98367.56;;;17.11;100.00
78741;BME280;68062;48.726;9.370;2023-07-30T03:17:03;98375.47;;;17.08;100.00
78741;BME280;68062;48.726;9.370;2023-07-30T03:19:30;98377.88;;;16.87;100.00
78741;BME280;68062;48.726;9.370;2023-07-30T03:21:58;98376.41;;;16.78;100.00
78741;BME280;68062;48.726;9.370;2023-07-30T03:24:25;98383.47;;;16.74;100.00
78741;BME280;68062;48.726;9.370;2023-07-30T03:26:51;98386.22;;;16.70;100.00
78741;BME280;68062;48.726;9.370;2023-07-30T03:29:18;98383.81;;;16.63;100.00
78741;BME280;68062;48.726;9.370;2023-07-30T03:31:56;58983.28;;;-145.99;100.00
78741;BME280;68062;48.726;9.370;2023-07-30T03:35:20;58983.28;;;-145.99;100.00
78741;BME280;68062;48.726;9.370;2023-07-30T03:38:46;58983.28;;;-145.99;100.00
78741;BME280;68062;48.726;9.370;2023-07-30T03:42:11;58983.28;;;-145.99;100.00
78741;BME280;68062;48.726;9.370;2023-07-30T03:45:36;58983.28;;;-145.99;100.00
78741;BME280;68062;48.726;9.370;2023-07-30T03:48:03;98383.81;;;16.63;100.00
78741;BME280;68062;48.726;9.370;2023-07-30T03:50:30;98383.81;;;16.63;100.00
78741;BME280;68062;48.726;9.370;2023-07-30T03:53:12;78443.22;;;16.63;100.00
78741;BME280;68062;48.726;9.370;2023-07-30T03:55:44;58983.28;;;-145.99;100.00
78741;BME280;68062;48.726;9.370;2023-07-30T03:58:18;58983.28;;;16.63;100.00
78741;BME280;68062;48.726;9.370;2023-07-30T04:01:22;98383.81;;;16.63;100.00
78741;BME280;68062;48.726;9.370;2023-07-30T04:03:58;99509.03;;;16.63;100.00
78741;BME280;68062;48.726;9.370;2023-07-30T04:07:22;58983.28;;;-145.99;100.00
78741;BME280;68062;48.726;9.370;2023-07-30T04:10:48;58983.28;;;-145.99;100.00
78741;BME280;68062;48.726;9.370;2023-07-30T04:14:14;58983.28;;;-145.99;100.00
78741;BME280;68062;48.726;9.370;2023-07-30T04:17:39;58983.28;;;-145.99;100.00
78741;BME280;68062;48.726;9.370;2023-07-30T04:21:04;58983.28;;;-145.99;100.00
78741;BME280;68062;48.726;9.370;2023-07-30T04:24:12;58983.28;;;-145.99;100.00
78741;BME280;68062;48.726;9.370;2023-07-30T04:27:39;58983.28;;;-145.99;100.00
78741;BME280;68062;48.726;9.370;2023-07-30T04:30:15;98637.31;;;16.63;100.00
78741;BME280;68062;48.726;9.370;2023-07-30T04:32:58;58983.28;;;-145.99;100.00
78741;BME280;68062;48.726;9.370;2023-07-30T04:35:30;58983.28;;;-145.99;100.00
78741;BME280;68062;48.726;9.370;2023-07-30T04:38:26;98383.81;;;16.63;100.00
78741;BME280;68062;48.726;9.370;2023-07-30T04:41:36;98383.81;;;-145.99;100.00
78741;BME280;68062;48.726;9.370;2023-07-30T04:44:34;58983.28;;;-145.99;100.00
78741;BME280;68062;48.726;9.370;2023-07-30T04:47:09;98383.81;;;16.63;100.00
78741;BME280;68062;48.726;9.370;2023-07-30T04:49:40;58983.28;;;-145.99;100.00
78741;BME280;68062;48.726;9.370;2023-07-30T04:52:08;98383.81;;;16.63;100.00
78741;BME280;68062;48.726;9.370;2023-07-30T04:54:36;98383.81;;;16.63;100.00
78741;BME280;68062;48.726;9.370;2023-07-30T04:57:03;110296.28;;;16.63;100.00
78741;BME280;68062;48.726;9.370;2023-07-30T04:59:32;98383.81;;;16.63;100.00
78741;BME280;68062;48.726;9.370;2023-07-30T05:01:59;98383.81;;;16.63;100.00
78741;BME280;68062;48.726;9.370;2023-07-30T05:04:26;98383.81;;;16.63;100.00
78741;BME280;68062;48.726;9.370;2023-07-30T05:06:53;58983.28;;;-145.99;100.00
78741;BME280;68062;48.726;9.370;2023-07-30T05:09:19;98383.81;;;16.63;100.00
78741;BME280;68062;48.726;9.370;2023-07-30T05:11:46;58983.28;;;-145.99;100.00
78741;BME280;68062;48.726;9.370;2023-07-30T05:14:13;58983.28;;;-145.99;100.00
78741;BME280;68062;48.726;9.370;2023-07-30T05:16:41;98447.78;;;17.45;100.00
78741;BME280;68062;48.726;9.370;2023-07-30T05:19:07;98447.78;;;17.45;100.00
78741;BME280;68062;48.726;9.370;2023-07-30T05:21:34;58983.28;;;-145.99;100.00
78741;BME280;68062;48.726;9.370;2023-07-30T05:24:00;98452.38;;;17.62;100.00
78741;BME280;68062;48.726;9.370;2023-07-30T05:26:36;58983.28;;;17.62;100.00
78741;BME280;68062;48.726;9.370;2023-07-30T05:29:02;58983.28;;;-145.99;100.00
78741;BME280;68062;48.726;9.370;2023-07-30T05:31:29;58983.28;;;-145.99;100.00
78741;BME280;68062;48.726;9.370;2023-07-30T05:33:57;58983.28;;;-145.99;100.00
78741;BME280;68062;48.726;9.370;2023-07-30T05:36:25;98452.38;;;17.62;100.00
78741;BME280;68062;48.726;9.370;2023-07-30T05:38:55;58983.28;;;-145.99;100.00
78741;BME280;68062;48.726;9.370;2023-07-30T05:41:28;58983.28;;;-145.99;100.00
78741;BME280;68062;48.726;9.370;2023-07-30T05:44:09;58983.28;;;-145.99;100.00
78741;BME280;68062;48.726;9.370;2023-07-30T05:46:35;58983.28;;;-145.99;100.00
78741;BME280;68062;48.726;9.370;2023-07-30T05:49:03;58983.28;;;-145.99;100.00
78741;BME280;68062;48.726;9.370;2023-07-30T05:51:30;58983.28;;;-145.99;100.00
78741;BME280;68062;48.726;9.370;2023-07-30T05:53:56;58983.28;;;-145.99;100.00
78741;BME280;68062;48.726;9.370;2023-07-30T05:56:23;98458.25;;;18.61;100.00
78741;BME280;68062;48.726;9.370;2023-07-30T05:59:21;58983.28;;;18.61;100.00
78741;BME280;68062;48.726;9.370;2023-07-30T06:01:55;98458.25;;;18.61;100.00
78741;BME280;68062;48.726;9.370;2023-07-30T06:04:23;98464.00;;;18.92;100.00
78741;BME280;68062;48.726;9.370;2023-07-30T06:06:50;98462.50;;;19.08;100.00
78741;BME280;68062;48.726;9.370;2023-07-30T06:09:16;98460.38;;;18.96;100.00
78741;BME280;68062;48.726;9.370;2023-07-30T06:11:43;98456.19;;;18.92;100.00
78741;BME280;68062;48.726;9.370;2023-07-30T06:14:09;58983.28;;;-145.99;100.00
78741;BME280;68062;48.726;9.370;2023-07-30T06:16:36;98466.22;;;19.23;100.00
78741;BME280;68062;48.726;9.370;2023-07-30T06:19:02;98462.78;;;19.44;100.00
78741;BME280;68062;48.726;9.370;2023-07-30T06:21:30;58983.28;;;-145.99;100.00
78741;BME280;68062;48.726;9.370;2023-07-30T06:24:02;98462.78;;;19.44;100.00
78741;BME280;68062;48.726;9.370;2023-07-30T06:26:34;58983.28;;;-145.99;100.00
78741;BME280;68062;48.726;9.370;2023-07-30T06:29:00;98471.72;;;19.78;100.00
78741;BME280;68062;48.726;9.370;2023-07-30T06:31:27;98468.53;;;19.92;100.00
78741;BME280;68062;48.726;9.370;2023-07-30T06:33:54;58983.28;;;-145.99;100.00
78741;BME280;68062;48.726;9.370;2023-07-30T06:36:21;58983.28;;;-145.99;100.00
78741;BME280;68062;48.726;9.370;2023-07-30T06:38:49;58983.28;;;-145.99;100.00
78741;BME280;68062;48.726;9.370;2023-07-30T06:41:15;58983.28;;;-145.99;100.00
78741;BME280;68062;48.726;9.370;2023-07-30T06:43:42;58983.28;;;-145.99;100.00
78741;BME280;68062;48.726;9.370;2023-07-30T06:46:09;58983.28;;;-145.99;100.00
78741;BME280;68062;48.726;9.370;2023-07-30T06:48:36;58983.28;;;-145.99;100.00
78741;BME280;68062;48.726;9.370;2023-07-30T06:51:06;58983.28;;;-145.99;100.00
78741;BME280;68062;48.726;9.370;2023-07-30T06:53:34;58983.28;;;-145.99;100.00
78741;BME280;68062;48.726;9.370;2023-07-30T06:56:02;58983.28;;;-145.99;100.00
78741;BME280;68062;48.726;9.370;2023-07-30T06:58:28;58983.28;;;-145.99;100.00
78741;BME280;68062;48.726;9.370;2023-07-30T07:00:55;58983.28;;;-145.99;100.00
78741;BME280;68062;48.726;9.370;2023-07-30T07:03:21;58983.28;;;-145.99;100.00
78741;BME280;68062;48.726;9.370;2023-07-30T07:05:52;58983.28;;;-145.99;100.00
78741;BME280;68062;48.726;9.370;2023-07-30T07:08:19;58983.28;;;-145.99;100.00
78741;BME280;68062;48.726;9.370;2023-07-30T07:10:46;58983.28;;;-145.99;100.00
78741;BME280;68062;48.726;9.370;2023-07-30T07:13:14;58983.28;;;-145.99;100.00
78741;BME280;68062;48.726;9.370;2023-07-30T07:15:41;58983.28;;;-145.99;100.00
78741;BME280;68062;48.726;9.370;2023-07-30T07:18:08;58983.28;;;-145.99;100.00
78741;BME280;68062;48.726;9.370;2023-07-30T07:20:35;58983.28;;;-145.99;100.00
78741;BME280;68062;48.726;9.370;2023-07-30T07:23:02;58983.28;;;-145.99;100.00
78741;BME280;68062;48.726;9.370;2023-07-30T07:25:29;58983.28;;;-145.99;100.00
78741;BME280;68062;48.726;9.370;2023-07-30T07:27:55;58983.28;;;-145.99;100.00
78741;BME280;68062;48.726;9.370;2023-07-30T07:30:23;58983.28;;;-145.99;100.00
78741;BME280;68062;48.726;9.370;2023-07-30T07:32:50;58983.28;;;-145.99;100.00
78741;BME280;68062;48.726;9.370;2023-07-30T07:35:16;58983.28;;;-145.99;100.00
78741;BME280;68062;48.726;9.370;2023-07-30T07:37:45;58983.28;;;-145.99;100.00
78741;BME280;68062;48.726;9.370;2023-07-30T07:40:12;58983.28;;;-145.99;100.00
78741;BME280;68062;48.726;9.370;2023-07-30T07:42:39;58983.28;;;-145.99;100.00
78741;BME280;68062;48.726;9.370;2023-07-30T07:45:06;58983.28;;;-145.99;100.00
78741;BME280;68062;48.726;9.370;2023-07-30T07:47:34;98482.91;;;20.00;100.00
78741;BME280;68062;48.726;9.370;2023-07-30T07:50:01;98516.34;;;19.51;100.00
78741;BME280;68062;48.726;9.370;2023-07-30T07:52:28;98529.16;;;19.14;100.00
78741;BME280;68062;48.726;9.370;2023-07-30T07:54:54;98549.97;;;18.70;100.00
78741;BME280;68062;48.726;9.370;2023-07-30T07:57:21;98541.63;;;17.88;100.00
78741;BME280;68062;48.726;9.370;2023-07-30T07:59:47;98539.34;;;17.79;100.00
78741;BME280;68062;48.726;9.370;2023-07-30T08:02:14;98533.56;;;17.96;100.00
78741;BME280;68062;48.726;9.370;2023-07-30T08:04:42;98537.28;;;17.63;100.00
78741;BME280;68062;48.726;9.370;2023-07-30T08:07:08;98549.03;;;17.75;100.00
78741;BME280;68062;48.726;9.370;2023-07-30T08:09:35;98542.16;;;17.73;100.00
78741;BME280;68062;48.726;9.370;2023-07-30T08:12:01;98546.09;;;17.85;100.00
78741;BME280;68062;48.726;9.370;2023-07-30T08:14:29;98545.00;;;17.90;100.00
78741;BME280;68062;48.726;9.370;2023-07-30T08:16:55;98530.66;;;18.05;100.00
78741;BME280;68062;48.726;9.370;2023-07-30T08:19:22;98530.84;;;17.99;100.00
78741;BME280;68062;48.726;9.370;2023-07-30T08:21:50;98541.88;;;18.07;100.00
78741;BME280;68062;48.726;9.370;2023-07-30T08:24:16;98545.94;;;18.38;100.00
78741;BME280;68062;48.726;9.370;2023-07-30T08:26:43;58983.28;;;-145.99;100.00
78741;BME280;68062;48.726;9.370;2023-07-30T08:29:12;58983.28;;;-145.99;100.00
78741;BME280;68062;48.726;9.370;2023-07-30T08:31:39;98533.53;;;19.14;100.00
78741;BME280;68062;48.726;9.370;2023-07-30T08:34:06;98515.41;;;19.10;100.00
78741;BME280;68062;48.726;9.370;2023-07-30T08:36:34;58983.28;;;-145.99;100.00
78741;BME280;68062;48.726;9.370;2023-07-30T08:39:02;98536.88;;;20.00;100.00
78741;BME280;68062;48.726;9.370;2023-07-30T08:41:29;98541.22;;;20.39;100.00
78741;BME280;68062;48.726;9.370;2023-07-30T08:43:56;98543.13;;;20.55;100.00
78741;BME280;68062;48.726;9.370;2023-07-30T08:46:22;98549.19;;;20.94;100.00
78741;BME280;68062;48.726;9.370;2023-07-30T08:48:49;58983.28;;;-145.99;100.00
78741;BME280;68062;48.726;9.370;2023-07-30T08:51:17;98549.19;;;20.94;100.00
78741;BME280;68062;48.726;9.370;2023-07-30T08:53:57;98549.19;;;20.94;100.00
78741;BME280;68062;48.726;9.370;2023-07-30T08:56:25;98524.38;;;21.73;99.40
78741;BME280;68062;48.726;9.370;2023-07-30T08:58:52;98526.44;;;22.01;99.21
78741;BME280;68062;48.726;9.370;2023-07-30T09:01:25;98537.25;;;22.11;96.02
78741;BME280;68062;48.726;9.370;2023-07-30T09:03:54;98542.16;;;22.51;95.10
78741;BME280;68062;48.726;9.370;2023-07-30T09:06:21;98536.84;;;23.31;87.76
78741;BME280;68062;48.726;9.370;2023-07-30T09:08:48;98533.91;;;22.89;88.25
78741;BME280;68062;48.726;9.370;2023-07-30T09:11:48;98533.91;;;22.89;88.25
78741;BME280;68062;48.726;9.370;2023-07-30T09:14:19;98547.00;;;21.39;97.32
78741;BME280;68062;48.726;9.370;2023-07-30T09:16:45;98541.69;;;21.40;94.46
78741;BME280;68062;48.726;9.370;2023-07-30T09:19:16;98541.69;;;21.40;94.46
78741;BME280;68062;48.726;9.370;2023-07-30T09:21:42;98546.00;;;21.41;94.04
78741;BME280;68062;48.726;9.370;2023-07-30T09:24:23;58983.28;;;-145.99;100.00
78741;BME280;68062;48.726;9.370;2023-07-30T09:26:51;98546.84;;;21.59;92.87
78741;BME280;68062;48.726;9.370;2023-07-30T09:29:17;98545.88;;;21.80;92.15
78741;BME280;68062;48.726;9.370;2023-07-30T09:31:52;98545.88;;;21.80;92.15
78741;BME280;68062;48.726;9.370;2023-07-30T09:34:20;98535.69;;;21.56;88.16
78741;BME280;68062;48.726;9.370;2023-07-30T09:36:49;98544.38;;;21.21;88.24
78741;BME280;68062;48.726;9.370;2023-07-30T09:39:17;98508.81;;;20.24;98.54
78741;BME280;68062;48.726;9.370;2023-07-30T09:41:45;98540.34;;;19.80;95.24
78741;BME280;68062;48.726;9.370;2023-07-30T09:44:16;98543.25;;;19.51;97.50
78741;BME280;68062;48.726;9.370;2023-07-30T09:46:43;98541.88;;;19.22;100.00
78741;BME280;68062;48.726;9.370;2023-07-30T09:49:10;98545.09;;;19.06;100.00
78741;BME280;68062;48.726;9.370;2023-07-30T09:51:37;98563.44;;;18.57;100.00
78741;BME280;68062;48.726;9.370;2023-07-30T09:54:06;98564.22;;;18.37;100.00
78741;BME280;68062;48.726;9.370;2023-07-30T09:56:34;98564.22;;;18.37;100.00
78741;BME280;68062;48.726;9.370;2023-07-30T09:59:45;98564.22;;;18.37;100.00
78741;BME280;68062;48.726;9.370;2023-07-30T10:03:10;58983.28;;;-145.99;100.00
78741;BME280;68062;48.726;9.370;2023-07-30T10:05:39;98578.94;;;18.60;100.00
78741;BME280;68062;48.726;9.370;2023-07-30T10:08:40;98578.94;;;18.60;100.00
78741;BME280;68062;48.726;9.370;2023-07-30T10:11:08;98581.72;;;19.03;100.00
78741;BME280;68062;48.726;9.370;2023-07-30T10:13:36;98581.94;;;19.41;100.00
78741;BME280;68062;48.726;9.370;2023-07-30T10:16:09;98577.91;;;19.55;100.00
78741;BME280;68062;48.726;9.370;2023-07-30T10:18:38;98578.78;;;20.16;100.00
78741;BME280;68062;48.726;9.370;2023-07-30T10:21:07;98579.09;;;20.88;100.00
78741;BME280;68062;48.726;9.370;2023-07-30T10:23:34;98580.03;;;21.05;97.58
78741;BME280;68062;48.726;9.370;2023-07-30T10:26:09;98584.88;;;21.12;90.40
78741;BME280;68062;48.726;9.370;2023-07-30T10:28:36;98584.94;;;21.48;93.56
78741;BME280;68062;48.726;9.370;2023-07-30T10:31:06;98582.50;;;21.80;86.04
78741;BME280;68062;48.726;9.370;2023-07-30T10:33:46;98580.28;;;22.89;83.03
78741;BME280;68062;48.726;9.370;2023-07-30T10:36:13;98578.97;;;24.04;79.93
78741;BME280;68062;48.726;9.370;2023-07-30T10:38:40;98577.97;;;24.92;74.35
78741;BME280;68062;48.726;9.370;2023-07-30T10:41:09;98571.06;;;25.44;72.88
78741;BME280;68062;48.726;9.370;2023-07-30T10:43:39;98571.56;;;25.23;68.34
78741;BME280;68062;48.726;9.370;2023-07-30T10:46:05;98571.84;;;25.06;67.26
78741;BME280;68062;48.726;9.370;2023-07-30T10:48:33;98570.81;;;24.52;67.38
78741;BME280;68062;48.726;9.370;2023-07-30T10:51:03;98567.56;;;23.29;71.75
78741;BME280;68062;48.726;9.370;2023-07-30T10:53:30;98570.28;;;22.96;72.35
78741;BME280;68062;48.726;9.370;2023-07-30T10:55:58;98568.41;;;22.66;74.74
78741;BME280;68062;48.726;9.370;2023-07-30T10:58:27;98574.41;;;23.62;71.93
78741;BME280;68062;48.726;9.370;2023-07-30T11:00:53;98555.56;;;24.86;64.61
78741;BME280;68062;48.726;9.370;2023-07-30T11:03:20;98559.72;;;25.03;63.63
78741;BME280;68062;48.726;9.370;2023-07-30T11:05:47;98561.94;;;25.09;64.83
78741;BME280;68062;48.726;9.370;2023-07-30T11:08:15;98542.91;;;23.91;61.37
78741;BME280;68062;48.726;9.370;2023-07-30T11:10:43;98482.47;;;24.22;55.91
78741;BME280;68062;48.726;9.370;2023-07-30T11:13:09;98563.56;;;23.38;59.54
78741;BME280;68062;48.726;9.370;2023-07-30T11:15:40;98512.31;;;23.32;59.36
78741;BME280;68062;48.726;9.370;2023-07-30T11:18:07;98559.38;;;23.03;58.55
78741;BME280;68062;48.726;9.370;2023-07-30T11:20:34;98546.75;;;23.71;59.15
78741;BME280;68062;48.726;9.370;2023-07-30T11:23:02;98561.56;;;23.72;59.44
78741;BME280;68062;48.726;9.370;2023-07-30T11:25:29;98552.03;;;22.62;60.79
78741;BME280;68062;48.726;9.370;2023-07-30T11:27:56;98573.59;;;22.51;64.39
78741;BME280;68062;48.726;9.370;2023-07-30T11:30:22;98575.53;;;22.80;61.86
78741;BME280;68062;48.726;9.370;2023-07-30T11:32:49;98568.69;;;22.77;62.92
78741;BME280;68062;48.726;9.370;2023-07-30T11:35:16;98572.47;;;22.55;63.79
78741;BME280;68062;48.726;9.370;2023-07-30T11:37:43;98568.13;;;22.38;64.78
78741;BME280;68062;48.726;9.370;2023-07-30T11:40:10;98566.50;;;21.86;66.13
78741;BME280;68062;48.726;9.370;2023-07-30T11:42:39;98570.81;;;21.69;65.24
78741;BME280;68062;48.726;9.370;2023-07-30T11:45:17;98576.44;;;22.62;63.95
78741;BME280;68062;48.726;9.370;2023-07-30T11:47:45;98571.66;;;23.49;61.75
78741;BME280;68062;48.726;9.370;2023-07-30T11:50:12;98566.63;;;23.61;60.82
78741;BME280;68062;48.726;9.370;2023-07-30T11:52:51;98573.16;;;22.75;61.79
78741;BME280;68062;48.726;9.370;2023-07-30T11:55:17;98575.03;;;22.57;64.30
78741;BME280;68062;48.726;9.370;2023-07-30T11:57:46;98567.22;;;22.05;63.85
78741;BME280;68062;48.726;9.370;2023-07-30T12:00:13;98580.81;;;22.12;64.72
78741;BME280;68062;48.726;9.370;2023-07-30T12:02:40;98581.22;;;22.88;61.58
78741;BME280;68062;48.726;9.370;2023-07-30T12:05:10;98588.81;;;22.92;63.71
78741;BME280;68062;48.726;9.370;2023-07-30T12:07:39;98582.47;;;23.59;60.06
78741;BME280;68062;48.726;9.370;2023-07-30T12:10:07;98581.16;;;23.66;60.80
78741;BME280;68062;48.726;9.370;2023-07-30T12:12:34;98590.56;;;23.08;62.05
78741;BME280;68062;48.726;9.370;2023-07-30T12:15:10;98594.16;;;23.23;63.22
78741;BME280;68062;48.726;9.370;2023-07-30T12:17:37;98600.22;;;23.85;61.80
78741;BME280;68062;48.726;9.370;2023-07-30T12:20:04;98582.03;;;23.81;59.72
78741;BME280;68062;48.726;9.370;2023-07-30T12:22:32;98571.38;;;23.24;62.17
78741;BME280;68062;48.726;9.370;2023-07-30T12:24:59;98600.72;;;22.50;64.61
78741;BME280;68062;48.726;9.370;2023-07-30T12:27:26;98580.03;;;23.40;61.02
78741;BME280;68062;48.726;9.370;2023-07-30T12:29:53;98585.47;;;24.42;59.49
78741;BME280;68062;48.726;9.370;2023-07-30T12:32:21;98580.44;;;24.80;58.29
78741;BME280;68062;48.726;9.370;2023-07-30T12:34:48;98584.53;;;24.28;56.05
78741;BME280;68062;48.726;9.370;2023-07-30T12:37:14;98586.47;;;24.39;57.32
78741;BME280;68062;48.726;9.370;2023-07-30T12:39:41;98587.19;;;23.98;58.83
78741;BME280;68062;48.726;9.370;2023-07-30T12:42:07;98586.59;;;24.52;56.79
78741;BME280;68062;48.726;9.370;2023-07-30T12:44:35;98574.38;;;23.48;60.17
78741;BME280;68062;48.726;9.370;2023-07-30T12:47:01;98586.22;;;24.44;60.05
78741;BME280;68062;48.726;9.370;2023-07-30T12:49:29;98585.78;;;24.93;54.00
78741;BME280;68062;48.726;9.370;2023-07-30T12:51:56;98589.69;;;23.70;57.00
78741;BME280;68062;48.726;9.370;2023-07-30T12:54:23;98589.66;;;23.25;59.35
78741;BME280;68062;48.726;9.370;2023-07-30T12:56:49;98601.25;;;22.89;60.75
78741;BME280;68062;48.726;9.370;2023-07-30T12:59:16;98594.38;;;22.54;62.75
78741;BME280;68062;48.726;9.370;2023-07-30T13:01:42;98598.84;;;22.18;64.31
78741;BME280;68062;48.726;9.370;2023-07-30T13:04:09;98603.72;;;22.09;64.80
78741;BME280;68062;48.726;9.370;2023-07-30T13:06:37;98603.88;;;22.39;62.32